Time;durP1;ratioP1;P1;durP2;ratioP2;P2;SDS_P1;SDS_P2;PMS_P1;PMS_P2;Temp;Humidity;BMP_temperature;BMP_pressure;BME280_temperature;BME280_humidity;BME280_pressure;Samples;Min_cycle;Max_cycle;Signal;HPM_P1;HPM_P2
2022/04/23 01:08:58;;;;;;;;;;;;;;;12.12;68.82;98427.53;4080225;32;19993;-91
2022/04/23 01:11:30;;;;;;;;;;;;;;;12.18;68.56;98432.50;4202779;34;34127;-91
2022/04/23 01:13:59;;;;;;;;;;;;;;;12.01;69.05;98427.09;4203603;34;32990;-90
2022/04/23 01:16:28;;;;;;;;;;;;;;;11.82;70.14;98429.56;4202216;34;33791;-91
2022/04/23 01:18:56;;;;;;;;;;;;;;;11.98;69.71;98429.84;4201481;34;34251;-91
2022/04/23 01:21:30;;;;;;;;;;;;;;;12.15;69.30;98432.59;4201289;34;33783;-90
2022/04/23 01:23:59;;;;;;;;;;;;;;;11.94;70.10;98431.72;4202895;34;32260;-91
2022/04/23 01:26:28;;;;;;;;;;;;;;;12.04;69.62;98432.22;4202301;34;34047;-91
2022/04/23 01:28:57;;;;;;;;;;;;;;;12.08;69.36;98429.44;4202800;34;33280;-90
2022/04/23 01:31:26;;;;;;;;;;;;;;;12.37;68.57;98430.00;4198637;34;34083;-91
2022/04/23 01:34:04;;;;;;;;;;;;;;;11.95;70.10;98433.41;4201134;34;32921;-91
2022/04/23 01:36:34;;;;;;;;;;;;;;;12.33;68.51;98428.44;4202343;34;33725;-91
2022/04/23 01:41:48;;;;;;;;;;;;;;;11.65;71.04;98435.41;4202445;34;34835;-90
2022/04/23 01:44:20;;;;;;;;;;;;;;;11.50;72.02;98429.00;4209053;34;34574;-91
2022/04/23 01:46:56;;;;;;;;;;;;;;;11.65;72.02;98436.25;4186988;34;33691;-91
2022/04/23 01:49:27;;;;;;;;;;;;;;;11.51;72.08;98435.91;4199524;34;34634;-92
2022/04/23 01:51:59;;;;;;;;;;;;;;;11.52;72.40;98429.81;4175793;34;34807;-91
2022/04/23 01:54:37;;;;;;;;;;;;;;;11.50;72.57;98436.78;4198744;34;33292;-91
2022/04/23 01:57:16;;;;;;;;;;;;;;;11.56;72.83;98436.59;4201157;34;34575;-91
2022/04/23 01:59:53;;;;;;;;;;;;;;;11.52;72.80;98435.00;4202755;34;34268;-91
2022/04/23 02:02:36;;;;;;;;;;;;;;;11.72;72.16;98442.06;4203366;34;34299;-91
2022/04/23 02:05:19;;;;;;;;;;;;;;;12.02;70.49;98437.47;4200541;34;33813;-91
2022/04/23 02:07:50;;;;;;;;;;;;;;;11.70;71.73;98438.69;4201547;34;34621;-91
2022/04/23 02:10:28;;;;;;;;;;;;;;;11.35;73.40;98448.59;4198209;34;34876;-90
2022/04/23 02:13:01;;;;;;;;;;;;;;;11.65;72.46;98446.63;4192257;34;34194;-91
2022/04/23 02:15:31;;;;;;;;;;;;;;;11.72;71.87;98448.09;4187165;34;33843;-91
2022/04/23 02:18:00;;;;;;;;;;;;;;;11.79;71.52;98440.06;4190108;34;33333;-91
2022/04/23 02:20:29;;;;;;;;;;;;;;;11.48;72.71;98444.66;4200009;34;34980;-91
2022/04/23 02:22:59;;;;;;;;;;;;;;;11.54;72.98;98449.62;4200552;34;34500;-90
2022/04/23 02:25:29;;;;;;;;;;;;;;;11.62;72.64;98443.28;4199283;34;33000;-90
2022/04/23 02:27:57;;;;;;;;;;;;;;;11.52;72.80;98446.25;4201723;34;33605;-91
2022/04/23 02:30:26;;;;;;;;;;;;;;;11.40;73.40;98451.88;4203194;34;32823;-91
2022/04/23 02:32:54;;;;;;;;;;;;;;;11.42;73.31;98455.25;4201062;34;34453;-91
2022/04/23 02:35:22;;;;;;;;;;;;;;;11.61;72.65;98449.41;4198405;34;33389;-91
2022/04/23 02:37:53;;;;;;;;;;;;;;;11.64;72.66;98454.47;4199941;34;34874;-90
2022/04/23 02:40:25;;;;;;;;;;;;;;;11.41;73.81;98458.78;4200888;34;34136;-91
2022/04/23 02:42:57;;;;;;;;;;;;;;;11.54;72.95;98460.00;4203274;34;34152;-92
2022/04/23 02:45:29;;;;;;;;;;;;;;;11.75;72.50;98462.72;4199582;34;33344;-90
2022/04/23 02:48:00;;;;;;;;;;;;;;;11.74;72.35;98461.00;4199945;34;33619;-91
2022/04/23 02:50:29;;;;;;;;;;;;;;;11.84;71.90;98454.59;4200194;34;34916;-90
2022/04/23 02:52:59;;;;;;;;;;;;;;;12.13;69.96;98453.50;4201050;34;34537;-91
2022/04/23 02:55:32;;;;;;;;;;;;;;;11.88;70.87;98453.56;4200359;34;33141;-91
2022/04/23 02:58:01;;;;;;;;;;;;;;;11.88;70.79;98456.19;4201957;34;33965;-91
2022/04/23 03:00:29;;;;;;;;;;;;;;;11.53;72.34;98454.88;4195888;34;34149;-91
2022/04/23 03:02:57;;;;;;;;;;;;;;;11.68;71.65;98459.50;4192331;34;33482;-91
2022/04/23 03:05:27;;;;;;;;;;;;;;;11.78;71.08;98460.00;4200532;34;33136;-90
2022/04/23 03:07:55;;;;;;;;;;;;;;;11.59;72.15;98457.25;4200075;34;34827;-91
2022/04/23 03:10:23;;;;;;;;;;;;;;;11.66;71.82;98456.09;4201351;34;34255;-91
2022/04/23 03:12:56;;;;;;;;;;;;;;;11.52;72.58;98455.78;4198929;34;34133;-91
2022/04/23 03:15:25;;;;;;;;;;;;;;;11.72;71.99;98457.66;4200605;34;32209;-91
2022/04/23 03:18:03;;;;;;;;;;;;;;;11.70;71.83;98455.09;4201279;34;33923;-90
2022/04/23 03:20:31;;;;;;;;;;;;;;;11.71;72.01;98459.38;4198735;34;34055;-91
2022/04/23 03:23:00;;;;;;;;;;;;;;;11.78;70.97;98460.00;4200534;34;34169;-91
2022/04/23 03:25:29;;;;;;;;;;;;;;;11.67;71.60;98455.22;4202753;34;33920;-91
2022/04/23 03:27:59;;;;;;;;;;;;;;;11.77;71.08;98460.91;4202233;34;34391;-91
2022/04/23 03:30:28;;;;;;;;;;;;;;;11.49;72.15;98455.91;4199192;34;35532;-91
2022/04/23 03:32:56;;;;;;;;;;;;;;;11.29;73.55;98469.59;4198741;34;33876;-90
2022/04/23 03:35:26;;;;;;;;;;;;;;;11.53;72.22;98463.53;4191964;34;33207;-91
2022/04/23 03:37:57;;;;;;;;;;;;;;;11.58;72.00;98472.91;4191750;34;32653;-91
2022/04/23 03:40:25;;;;;;;;;;;;;;;11.57;71.82;98478.97;4199058;34;34318;-91
2022/04/23 03:42:54;;;;;;;;;;;;;;;11.64;71.76;98488.25;4188505;34;33793;-90
2022/04/23 03:45:26;;;;;;;;;;;;;;;11.73;71.28;98480.12;4188978;34;33990;-91
2022/04/23 03:47:55;;;;;;;;;;;;;;;11.75;71.29;98489.53;4200625;34;35060;-91
2022/04/23 03:50:30;;;;;;;;;;;;;;;11.54;72.14;98487.72;4200881;34;35112;-91
2022/04/23 03:53:01;;;;;;;;;;;;;;;11.76;70.88;98485.19;4203815;34;33397;-91
2022/04/23 03:55:30;;;;;;;;;;;;;;;11.70;71.17;98486.28;4197879;34;33900;-91
2022/04/23 03:58:04;;;;;;;;;;;;;;;11.51;72.16;98488.69;4198853;34;34195;-91
2022/04/23 04:01:33;;;;;;;;;;;;;;;11.28;73.38;98488.66;4185392;34;34306;-91
2022/04/23 04:04:11;;;;;;;;;;;;;;;11.29;73.15;98503.34;4202543;34;34145;-91
2022/04/23 04:06:44;;;;;;;;;;;;;;;11.44;72.77;98505.41;4202222;34;33117;-91
2022/04/23 04:09:36;;;;;;;;;;;;;;;11.34;73.55;98498.84;4200789;34;33926;-91
2022/04/23 08:01:21;;;;;;;;;;;;;;;14.08;64.13;98677.16;4152691;34;34997;-92
2022/04/23 08:48:45;;;;;;;;;;;;;;;15.32;59.62;98691.53;4030310;35;33654;-91
2022/04/23 08:51:31;;;;;;;;;;;;;;;15.47;58.56;98696.94;4067120;35;35718;-90
2022/04/23 08:54:01;;;;;;;;;;;;;;;15.35;61.61;98696.59;4091884;35;35208;-90
2022/04/23 08:56:46;;;;;;;;;;;;;;;15.83;58.34;98699.53;4103262;34;34074;-90
2022/04/23 08:59:21;;;;;;;;;;;;;;;15.87;58.24;98694.97;4132132;34;33681;-91
2022/04/23 09:02:12;;;;;;;;;;;;;;;16.02;58.92;98707.28;4183278;34;34293;-93
2022/04/23 09:05:02;;;;;;;;;;;;;;;16.15;56.47;98712.72;4188015;34;34411;-92
2022/04/23 09:08:26;;;;;;;;;;;;;;;16.13;56.62;98720.63;4176666;34;34642;-91
2022/04/23 09:11:12;;;;;;;;;;;;;;;16.18;56.25;98726.47;4176100;34;35753;-93
2022/04/23 09:13:51;;;;;;;;;;;;;;;16.13;56.88;98717.19;4186918;34;33278;-91
2022/04/23 09:25:41;;;;;;;;;;;;;;;16.46;57.72;98730.28;4177312;34;34878;-90
2022/04/23 09:28:26;;;;;;;;;;;;;;;16.46;57.35;98732.91;4174898;34;34958;-90
2022/04/23 09:31:15;;;;;;;;;;;;;;;16.59;56.91;98731.31;4174871;34;33483;-90
2022/04/23 09:33:54;;;;;;;;;;;;;;;16.73;55.48;98737.59;4173449;34;34544;-92
2022/04/23 09:36:27;;;;;;;;;;;;;;;16.76;55.68;98738.28;4175301;34;36218;-90
2022/04/23 09:39:00;;;;;;;;;;;;;;;16.84;55.75;98738.75;4174444;34;34997;-92
2022/04/23 09:41:32;;;;;;;;;;;;;;;16.91;54.38;98728.78;4174912;34;34495;-91
2022/04/23 09:44:09;;;;;;;;;;;;;;;16.90;55.57;98742.81;4177618;34;33930;-93
2022/04/23 09:46:44;;;;;;;;;;;;;;;16.81;56.69;98735.44;4174770;34;34241;-91
2022/04/23 09:49:31;;;;;;;;;;;;;;;16.76;56.34;98742.66;4182038;34;34962;-91
2022/04/23 09:52:01;;;;;;;;;;;;;;;16.43;56.83;98741.78;4188056;34;33239;-94
2022/04/23 09:54:29;;;;;;;;;;;;;;;16.20;57.34;98740.34;4187765;34;33940;-93
2022/04/23 09:56:58;;;;;;;;;;;;;;;16.20;57.74;98742.09;4185827;34;34886;-91
2022/04/23 09:59:28;;;;;;;;;;;;;;;16.21;57.88;98746.41;4176701;34;34650;-91
2022/04/23 10:01:56;;;;;;;;;;;;;;;16.14;57.89;98748.50;4174904;34;33700;-89
2022/04/23 10:04:26;;;;;;;;;;;;;;;16.09;57.91;98742.66;4182848;34;34313;-92
2022/04/23 10:06:54;;;;;;;;;;;;;;;15.97;58.21;98746.75;4174054;34;34162;-90
2022/04/23 10:09:27;;;;;;;;;;;;;;;16.12;56.47;98750.34;4174168;34;34254;-90
2022/04/23 10:11:56;;;;;;;;;;;;;;;15.84;58.41;98757.91;4174855;34;34735;-90
2022/04/23 10:14:25;;;;;;;;;;;;;;;15.76;57.96;98756.50;4176944;34;33169;-88
2022/04/23 10:16:54;;;;;;;;;;;;;;;15.56;58.56;98759.22;4174495;34;33832;-87
2022/04/23 10:19:23;;;;;;;;;;;;;;;15.47;59.41;98764.91;4174375;34;33540;-88
2022/04/23 10:21:54;;;;;;;;;;;;;;;15.62;58.96;98765.91;4174260;34;33759;-88
2022/04/23 10:24:24;;;;;;;;;;;;;;;15.52;58.50;98768.13;4174419;34;32800;-89
2022/04/23 10:26:54;;;;;;;;;;;;;;;15.65;58.28;98766.59;4177178;34;33279;-90
2022/04/23 10:29:23;;;;;;;;;;;;;;;15.49;58.13;98763.91;4175073;34;34082;-87
2022/04/23 10:32:21;;;;;;;;;;;;;;;15.49;57.88;98769.13;4177279;34;33648;-88
2022/04/23 10:34:49;;;;;;;;;;;;;;;15.53;58.09;98760.19;4168441;34;32935;-89
2022/04/23 10:37:19;;;;;;;;;;;;;;;15.49;58.58;98760.44;4187491;34;33833;-88
2022/04/23 10:40:15;;;;;;;;;;;;;;;15.56;58.04;98765.28;4186725;34;34835;-91
2022/04/23 10:42:58;;;;;;;;;;;;;;;15.55;58.06;98760.97;4187286;34;34213;-89
2022/04/23 10:45:32;;;;;;;;;;;;;;;15.66;57.89;98764.84;4192386;34;33364;-87
2022/04/23 10:48:16;;;;;;;;;;;;;;;15.77;58.90;98763.41;4189494;34;33652;-90
2022/04/23 10:50:59;;;;;;;;;;;;;;;16.03;59.01;98768.28;4187453;34;32807;-88
2022/04/23 10:53:30;;;;;;;;;;;;;;;16.06;58.81;98778.59;4187614;34;33892;-88
2022/04/23 10:56:07;;;;;;;;;;;;;;;16.45;57.07;98782.72;4183295;34;32257;-88
2022/04/23 10:58:37;;;;;;;;;;;;;;;16.55;55.44;98790.03;4174443;34;34057;-90
2022/04/23 11:01:20;;;;;;;;;;;;;;;16.46;56.80;98789.66;4173929;34;34304;-87
2022/04/23 11:03:59;;;;;;;;;;;;;;;16.58;56.55;98789.87;4176397;34;33832;-88
2022/04/23 11:12:36;;;;;;;;;;;;;;;16.37;55.20;98781.34;4176683;34;34092;-88
2022/04/23 11:15:15;;;;;;;;;;;;;;;16.49;54.70;98785.09;4175370;34;33035;-87
2022/04/23 11:18:03;;;;;;;;;;;;;;;16.64;54.55;98783.44;4184219;34;33092;-88
2022/04/23 11:20:32;;;;;;;;;;;;;;;16.49;55.46;98786.88;4179174;34;36133;-88
2022/04/23 11:23:03;;;;;;;;;;;;;;;16.37;55.74;98778.72;4175795;34;34104;-88
2022/04/23 11:25:34;;;;;;;;;;;;;;;16.35;55.62;98785.81;4165345;34;32450;-88
2022/04/23 11:28:16;;;;;;;;;;;;;;;16.25;56.35;98787.22;4192008;34;33430;-87
2022/04/23 11:30:45;;;;;;;;;;;;;;;16.47;54.93;98789.56;4188947;34;35133;-88
2022/04/23 11:33:13;;;;;;;;;;;;;;;16.66;53.45;98792.06;4188892;34;34173;-89
2022/04/23 11:35:42;;;;;;;;;;;;;;;16.48;54.27;98788.66;4176715;34;33594;-87
2022/04/23 11:38:20;;;;;;;;;;;;;;;16.30;54.43;98790.44;4174772;34;33010;-89
2022/04/23 11:40:50;;;;;;;;;;;;;;;16.27;55.16;98790.59;4177417;34;34862;-88
2022/04/23 11:43:31;;;;;;;;;;;;;;;16.41;53.75;98787.28;4178010;34;33891;-90
2022/04/23 11:46:03;;;;;;;;;;;;;;;16.30;54.03;98792.22;4175005;34;34728;-90
2022/04/23 11:48:44;;;;;;;;;;;;;;;16.43;53.61;98791.50;4175715;34;33746;-87
2022/04/23 11:51:13;;;;;;;;;;;;;;;16.63;53.25;98798.31;4176355;34;34552;-88
2022/04/23 11:53:55;;;;;;;;;;;;;;;16.21;55.70;98793.50;4176977;34;34368;-90
2022/04/23 11:56:26;;;;;;;;;;;;;;;16.05;56.89;98792.62;4183611;34;34200;-90
2022/04/23 11:58:56;;;;;;;;;;;;;;;16.31;55.90;98796.50;4191764;34;34131;-88
2022/04/23 12:01:25;;;;;;;;;;;;;;;16.32;56.01;98800.84;4188971;34;35831;-91
2022/04/23 12:03:54;;;;;;;;;;;;;;;16.31;55.35;98792.16;4188547;34;34994;-89
2022/04/23 12:06:23;;;;;;;;;;;;;;;15.74;57.51;98787.09;4188480;34;34489;-90
2022/04/23 12:08:54;;;;;;;;;;;;;;;16.15;57.61;98793.84;4188374;34;33904;-90
2022/04/23 12:11:26;;;;;;;;;;;;;;;16.50;55.70;98791.19;4191493;34;34957;-87
2022/04/23 12:13:55;;;;;;;;;;;;;;;16.85;54.63;98792.81;4191106;34;34460;-88
2022/04/23 12:16:31;;;;;;;;;;;;;;;16.62;57.15;98782.69;4188770;34;34325;-87
2022/04/23 12:19:00;;;;;;;;;;;;;;;17.19;54.89;98784.94;4194875;34;32876;-88
2022/04/23 12:21:28;;;;;;;;;;;;;;;16.83;55.77;98781.59;4190545;34;35493;-88
2022/04/23 12:23:57;;;;;;;;;;;;;;;17.67;53.44;98772.63;4187906;34;34614;-90
2022/04/23 12:26:29;;;;;;;;;;;;;;;17.79;53.63;98771.09;4183045;34;34521;-87
2022/04/23 12:43:23;;;;;;;;;;;;;;;17.88;48.45;98755.69;4180916;34;34487;-91
2022/04/23 12:45:52;;;;;;;;;;;;;;;18.40;50.31;98756.16;4188425;34;33636;-88
2022/04/23 12:48:21;;;;;;;;;;;;;;;18.37;47.85;98757.19;4189365;34;34733;-88
2022/04/23 12:51:04;;;;;;;;;;;;;;;18.04;49.27;98760.03;4191010;34;33131;-88
2022/04/23 12:53:33;;;;;;;;;;;;;;;18.92;47.90;98759.09;4189431;34;34099;-89
2022/04/23 12:56:05;;;;;;;;;;;;;;;19.21;45.44;98766.09;4188724;34;35114;-90
2022/04/23 12:58:34;;;;;;;;;;;;;;;19.57;46.18;98769.00;4177415;34;33002;-90
2022/04/23 13:01:04;;;;;;;;;;;;;;;19.85;44.23;98772.50;4187813;34;34538;-88
2022/04/23 13:03:35;;;;;;;;;;;;;;;19.45;46.05;98767.19;4195180;34;34198;-91
2022/04/23 13:08:54;;;;;;;;;;;;;;;19.62;46.34;98764.28;4179496;34;34856;-89
2022/04/23 13:08:55;;;;;;;;;;;;;;;19.58;45.96;98764.59;4174707;34;34666;-90
2022/04/23 13:11:30;;;;;;;;;;;;;;;19.88;46.32;98769.62;4174374;34;33254;-88
2022/04/23 13:14:00;;;;;;;;;;;;;;;20.00;45.01;98768.00;4175264;34;34919;-88
2022/04/23 13:16:29;;;;;;;;;;;;;;;19.60;46.04;98760.91;4174761;34;34765;-89
2022/04/23 13:18:58;;;;;;;;;;;;;;;20.07;43.16;98768.44;4177888;34;34187;-90
2022/04/23 13:21:27;;;;;;;;;;;;;;;19.99;45.22;98767.16;4177253;34;33328;-88
2022/04/23 13:23:56;;;;;;;;;;;;;;;19.93;45.04;98766.72;4175435;34;34050;-88
2022/04/23 13:26:27;;;;;;;;;;;;;;;19.79;45.02;98763.22;4174687;34;34671;-88
2022/04/23 13:28:56;;;;;;;;;;;;;;;20.18;45.27;98765.94;4174240;34;34304;-89
2022/04/23 13:31:26;;;;;;;;;;;;;;;20.35;45.73;98756.88;4178786;34;33390;-89
2022/04/23 13:33:54;;;;;;;;;;;;;;;20.51;44.73;98761.94;4185258;34;35457;-89
2022/04/23 13:36:23;;;;;;;;;;;;;;;20.59;43.68;98760.50;4187655;34;35192;-91
2022/04/23 13:38:51;;;;;;;;;;;;;;;20.57;43.50;98764.19;4186668;34;33757;-91
2022/04/23 13:41:20;;;;;;;;;;;;;;;20.53;43.77;98766.13;4175502;34;33251;-89
2022/04/23 13:43:49;;;;;;;;;;;;;;;20.73;43.46;98774.47;4174565;34;34281;-89
2022/04/23 13:46:18;;;;;;;;;;;;;;;20.26;42.25;98771.50;4176770;34;34020;-87
2022/04/23 13:48:47;;;;;;;;;;;;;;;20.39;42.21;98767.09;4175215;34;33674;-89
2022/04/23 13:51:16;;;;;;;;;;;;;;;20.29;45.04;98762.56;4174155;34;34138;-90
2022/04/23 13:53:45;;;;;;;;;;;;;;;19.90;44.85;98767.75;4174030;34;34328;-91
2022/04/23 13:56:13;;;;;;;;;;;;;;;19.98;45.73;98773.37;4173373;34;34174;-90
2022/04/23 13:58:42;;;;;;;;;;;;;;;19.92;45.20;98770.28;4176983;34;33755;-90
2022/04/23 14:01:10;;;;;;;;;;;;;;;19.69;45.20;98769.16;4173719;34;34019;-88
2022/04/23 14:12:05;;;;;;;;;;;;;;;19.29;48.08;98774.34;4158447;34;33229;-88
2022/04/23 14:14:33;;;;;;;;;;;;;;;18.90;48.50;98776.75;4146500;34;33975;-89
2022/04/23 14:17:02;;;;;;;;;;;;;;;18.79;48.06;98775.72;4147867;34;33806;-88
2022/04/23 14:19:32;;;;;;;;;;;;;;;18.70;48.68;98774.47;4158662;34;32577;-90
2022/04/23 14:22:02;;;;;;;;;;;;;;;18.82;48.34;98784.25;4156775;34;32873;-88
2022/04/23 14:24:31;;;;;;;;;;;;;;;18.64;47.80;98769.59;4158353;34;33173;-90
2022/04/23 14:26:59;;;;;;;;;;;;;;;18.45;48.44;98780.38;4158366;34;33663;-90
2022/04/23 14:29:28;;;;;;;;;;;;;;;18.29;49.14;98778.66;4162114;34;33946;-89
2022/04/23 14:31:57;;;;;;;;;;;;;;;18.18;50.14;98781.06;4161143;34;33123;-90
2022/04/23 14:34:26;;;;;;;;;;;;;;;17.82;49.57;98778.81;4158755;34;35079;-87
2022/04/23 14:36:54;;;;;;;;;;;;;;;18.10;51.12;98780.69;4158390;34;35045;-88
2022/04/23 14:39:24;;;;;;;;;;;;;;;18.02;50.14;98780.28;4158281;34;33799;-88
2022/04/23 14:41:53;;;;;;;;;;;;;;;18.02;50.51;98790.78;4158503;34;33343;-89
2022/04/23 14:44:23;;;;;;;;;;;;;;;17.87;50.41;98790.72;4190861;34;34369;-88
2022/04/23 14:46:52;;;;;;;;;;;;;;;17.78;50.74;98793.84;4186871;34;34388;-87
2022/04/23 14:49:24;;;;;;;;;;;;;;;17.68;52.13;98792.66;4187779;34;34048;-89
2022/04/23 14:54:41;;;;;;;;;;;;;;;17.40;52.71;98803.87;4173597;34;33958;-88
2022/04/23 14:57:10;;;;;;;;;;;;;;;17.28;52.41;98805.41;4173711;34;34277;-88
2022/04/23 14:59:38;;;;;;;;;;;;;;;17.23;52.94;98799.56;4176635;34;34002;-90
2022/04/23 15:02:07;;;;;;;;;;;;;;;17.19;52.49;98796.25;4174941;34;33047;-90
2022/04/23 15:04:36;;;;;;;;;;;;;;;17.36;52.71;98805.81;4173565;34;33962;-88
2022/04/23 15:07:10;;;;;;;;;;;;;;;17.01;53.89;98792.88;4173703;34;34178;-88
2022/04/23 15:09:40;;;;;;;;;;;;;;;16.85;54.10;98799.84;4173601;34;33871;-91
2022/04/23 15:12:09;;;;;;;;;;;;;;;17.01;53.55;98790.25;4176487;34;32234;-87
2022/04/23 15:14:38;;;;;;;;;;;;;;;16.91;54.19;98791.66;4173938;34;34202;-88
2022/04/23 15:17:06;;;;;;;;;;;;;;;16.99;54.15;98789.47;4172962;34;34996;-87
2022/04/23 15:19:35;;;;;;;;;;;;;;;16.91;54.67;98796.87;4175228;34;34839;-89
2022/04/23 15:22:05;;;;;;;;;;;;;;;16.84;55.07;98796.37;4182361;34;33154;-89
2022/04/23 15:24:33;;;;;;;;;;;;;;;16.84;55.22;98793.78;4190492;34;34116;-88
2022/04/23 15:27:05;;;;;;;;;;;;;;;16.75;55.32;98794.22;4188865;34;35278;-87
2022/04/23 15:29:33;;;;;;;;;;;;;;;16.68;55.50;98790.22;4187253;34;34100;-89
2022/04/23 15:32:02;;;;;;;;;;;;;;;16.51;55.93;98792.88;4186765;34;34009;-88
2022/04/23 15:34:30;;;;;;;;;;;;;;;16.54;55.73;98790.09;4187774;34;33704;-88
2022/04/23 15:36:59;;;;;;;;;;;;;;;16.55;55.92;98792.66;4189247;34;34841;-85
2022/04/23 15:39:29;;;;;;;;;;;;;;;16.53;56.31;98794.50;4189836;34;34646;-88
2022/04/23 15:41:58;;;;;;;;;;;;;;;16.29;56.73;98782.69;4186803;34;34124;-90
2022/04/23 15:44:28;;;;;;;;;;;;;;;16.47;56.34;98789.56;4186495;34;34157;-89
2022/04/23 15:46:56;;;;;;;;;;;;;;;16.46;56.19;98793.12;4186289;34;33693;-90
2022/04/23 15:49:25;;;;;;;;;;;;;;;16.46;56.16;98798.34;4187011;34;33842;-88
2022/04/23 15:51:56;;;;;;;;;;;;;;;16.31;56.91;98796.50;4179509;34;33047;-90
2022/04/23 15:54:24;;;;;;;;;;;;;;;16.28;57.43;98789.66;4180057;34;34995;-88
2022/04/23 15:56:54;;;;;;;;;;;;;;;16.24;57.29;98792.50;4173811;34;35103;-88
2022/04/23 15:59:23;;;;;;;;;;;;;;;16.22;57.27;98784.75;4175019;34;33502;-88
2022/04/23 16:01:53;;;;;;;;;;;;;;;16.36;56.93;98781.44;4175218;34;33246;-87
2022/04/23 16:04:24;;;;;;;;;;;;;;;16.30;57.51;98790.44;4178169;34;33682;-87
2022/04/23 16:06:52;;;;;;;;;;;;;;;16.35;57.29;98791.03;4175308;34;34735;-87
2022/04/23 16:09:20;;;;;;;;;;;;;;;16.29;57.84;98783.50;4174978;34;33642;-88
2022/04/23 16:11:49;;;;;;;;;;;;;;;16.32;57.52;98782.50;4174867;34;33085;-88
2022/04/23 16:14:17;;;;;;;;;;;;;;;16.37;57.59;98791.81;4174695;34;34714;-91
2022/04/23 16:17:07;;;;;;;;;;;;;;;16.28;57.71;98788.81;4174837;34;35110;-89
2022/04/23 16:19:36;;;;;;;;;;;;;;;16.43;56.70;98783.66;4186486;34;33797;-87
2022/04/23 16:22:05;;;;;;;;;;;;;;;16.35;57.08;98793.66;4185027;34;33206;-89
2022/04/23 16:24:33;;;;;;;;;;;;;;;16.41;57.22;98793.34;4187689;34;34144;-88
2022/04/23 16:27:03;;;;;;;;;;;;;;;16.35;57.92;98784.97;4188621;34;33824;-88
2022/04/23 16:29:34;;;;;;;;;;;;;;;16.35;57.91;98785.81;4188969;34;33856;-88
2022/04/23 16:32:03;;;;;;;;;;;;;;;16.48;57.55;98786.03;4191529;34;33448;-88
2022/04/23 16:34:36;;;;;;;;;;;;;;;16.60;57.92;98782.78;4189587;34;34075;-91
2022/04/23 16:48:12;;;;;;;;;;;;;;;16.47;59.38;98780.87;4174958;34;35005;-89
2022/04/23 16:50:42;;;;;;;;;;;;;;;16.64;58.97;98772.97;4179005;34;34801;-90
2022/04/23 16:53:10;;;;;;;;;;;;;;;16.66;58.88;98781.59;4191346;34;32085;-88
2022/04/23 16:55:39;;;;;;;;;;;;;;;16.71;58.88;98779.59;4188393;34;34961;-90
2022/04/23 16:58:07;;;;;;;;;;;;;;;16.71;59.10;98782.19;4188223;34;34088;-90
2022/04/23 17:00:36;;;;;;;;;;;;;;;16.69;59.04;98775.34;4187264;34;32865;-90
2022/04/23 17:03:04;;;;;;;;;;;;;;;16.81;58.84;98769.50;4188667;34;33488;-90
2022/04/23 17:05:33;;;;;;;;;;;;;;;16.75;58.97;98767.19;4191252;34;33947;-90
2022/04/23 17:08:03;;;;;;;;;;;;;;;16.41;59.47;98761.09;4187876;34;35188;-87
2022/04/23 17:10:32;;;;;;;;;;;;;;;16.59;58.68;98762.75;4187729;34;34060;-88
2022/04/23 17:13:00;;;;;;;;;;;;;;;16.61;58.06;98767.91;4188054;34;33363;-91
2022/04/23 17:15:29;;;;;;;;;;;;;;;16.53;58.21;98770.94;4188214;34;33819;-90
2022/04/23 17:17:57;;;;;;;;;;;;;;;16.63;58.03;98774.75;4191299;34;34018;-90
2022/04/23 17:20:26;;;;;;;;;;;;;;;16.50;58.31;98770.22;4185620;34;32469;-88
2022/04/23 17:22:54;;;;;;;;;;;;;;;16.43;58.46;98777.59;4181461;34;33733;-91
2022/04/23 17:25:24;;;;;;;;;;;;;;;16.32;58.67;98772.03;4188772;34;33494;-90
2022/04/23 17:27:53;;;;;;;;;;;;;;;16.25;58.76;98762.81;4189052;34;35290;-89
2022/04/23 17:30:27;;;;;;;;;;;;;;;16.14;59.04;98766.84;4191004;34;34703;-88
2022/04/23 17:32:56;;;;;;;;;;;;;;;16.16;59.01;98766.72;4190505;34;33040;-88
2022/04/23 17:35:25;;;;;;;;;;;;;;;15.93;59.36;98763.50;4188341;34;34931;-89
2022/04/23 17:40:37;;;;;;;;;;;;;;;15.86;59.42;98763.91;4187347;34;34085;-90
2022/04/23 17:43:06;;;;;;;;;;;;;;;15.83;59.63;98769.28;4185211;34;32995;-88
2022/04/23 17:45:34;;;;;;;;;;;;;;;15.67;59.85;98764.75;4163889;34;33774;-91
2022/04/23 17:48:03;;;;;;;;;;;;;;;15.58;60.19;98768.69;4161796;34;34347;-87
2022/04/23 17:50:33;;;;;;;;;;;;;;;15.64;60.05;98769.31;4162086;34;34475;-88
2022/04/23 17:53:01;;;;;;;;;;;;;;;15.55;60.12;98781.87;4161367;34;33557;-90
2022/04/23 17:55:30;;;;;;;;;;;;;;;15.35;60.56;98793.28;4179310;34;34052;-90
2022/04/23 17:57:59;;;;;;;;;;;;;;;15.23;61.19;98799.09;4191137;34;33941;-89
2022/04/23 18:08:46;;;;;;;;;;;;;;;14.82;61.84;98804.44;4175414;34;34855;-86
2022/04/23 18:11:15;;;;;;;;;;;;;;;14.99;61.35;98815.91;4174057;34;35067;-90
2022/04/23 18:13:45;;;;;;;;;;;;;;;14.99;61.29;98821.13;4173663;34;33952;-89
2022/04/23 18:16:13;;;;;;;;;;;;;;;14.83;61.73;98810.50;4177159;34;33410;-87
2022/04/23 18:18:42;;;;;;;;;;;;;;;14.69;62.09;98811.09;4173762;34;34377;-89
2022/04/23 18:21:14;;;;;;;;;;;;;;;14.66;62.06;98809.47;4173343;34;33956;-89
2022/04/23 18:23:42;;;;;;;;;;;;;;;14.66;62.17;98809.47;4174887;34;33096;-87
2022/04/23 18:26:11;;;;;;;;;;;;;;;14.49;62.72;98807.56;4175180;34;34320;-89
2022/04/23 18:28:39;;;;;;;;;;;;;;;14.45;62.91;98811.25;4177493;34;34905;-88
2022/04/23 18:31:09;;;;;;;;;;;;;;;14.63;62.56;98808.78;4182197;34;34153;-88
2022/04/23 18:33:38;;;;;;;;;;;;;;;14.49;62.93;98807.56;4187290;34;34167;-88
2022/04/23 18:36:06;;;;;;;;;;;;;;;14.42;63.21;98819.19;4187712;34;34457;-88
2022/04/23 18:38:35;;;;;;;;;;;;;;;14.46;63.45;98809.47;4161606;34;865613;-88
2022/04/23 18:41:24;;;;;;;;;;;;;;;14.18;64.26;98820.22;4188169;34;33802;-88
2022/04/23 18:43:55;;;;;;;;;;;;;;;14.25;64.12;98812.06;4190826;34;32458;-88
2022/04/23 18:46:31;;;;;;;;;;;;;;;14.22;64.09;98806.16;4191067;34;33772;-89
2022/04/23 18:49:00;;;;;;;;;;;;;;;14.19;63.99;98803.69;4187591;34;36904;-87
2022/04/23 18:51:28;;;;;;;;;;;;;;;14.23;63.80;98802.63;4193921;34;33681;-88
2022/04/23 18:53:57;;;;;;;;;;;;;;;14.26;63.67;98805.13;4191473;34;34789;-87
2022/04/23 18:56:26;;;;;;;;;;;;;;;14.23;63.61;98805.22;4187106;34;33950;-88
2022/04/23 18:58:54;;;;;;;;;;;;;;;13.99;64.30;98807.09;4190320;34;33925;-88
2022/04/23 19:01:22;;;;;;;;;;;;;;;13.63;65.06;98810.31;4186117;34;33692;-88
2022/04/23 19:03:53;;;;;;;;;;;;;;;13.82;64.79;98805.19;4187379;34;33840;-88
2022/04/23 19:06:22;;;;;;;;;;;;;;;13.86;64.45;98801.56;4186956;34;35010;-90
2022/04/23 19:08:50;;;;;;;;;;;;;;;13.91;64.05;98798.75;4187108;34;34901;-87
2022/04/23 19:11:19;;;;;;;;;;;;;;;13.94;64.06;98799.50;4190138;34;34179;-90
2022/04/23 19:13:49;;;;;;;;;;;;;;;13.77;64.24;98802.78;4187540;34;32991;-89
2022/04/23 19:16:19;;;;;;;;;;;;;;;13.83;64.11;98805.13;4187942;34;33490;-90
2022/04/23 19:18:48;;;;;;;;;;;;;;;13.87;63.80;98804.09;4181135;34;34717;-89
2022/04/23 19:29:37;;;;;;;;;;;;;;;13.56;64.73;98819.28;4182053;34;34744;-90
2022/04/23 19:32:05;;;;;;;;;;;;;;;13.33;65.92;98817.56;4187756;34;34159;-90
2022/04/23 19:34:34;;;;;;;;;;;;;;;13.39;65.93;98815.56;4183325;34;34334;-87
2022/04/23 19:37:05;;;;;;;;;;;;;;;13.38;66.29;98826.87;4175375;34;33889;-90
2022/04/23 19:39:33;;;;;;;;;;;;;;;13.62;65.76;98819.87;4174983;34;33819;-88
2022/04/23 19:42:02;;;;;;;;;;;;;;;13.60;65.83;98832.12;4177882;34;34054;-88
2022/04/23 19:44:30;;;;;;;;;;;;;;;13.60;65.99;98831.25;4178324;34;33196;-88
2022/04/23 19:46:59;;;;;;;;;;;;;;;13.69;66.08;98840.50;4182231;34;33323;-87
2022/04/23 19:49:27;;;;;;;;;;;;;;;13.75;65.84;98832.41;4177215;34;34419;-89
2022/04/23 19:51:59;;;;;;;;;;;;;;;13.43;67.33;98835.41;4175812;34;33877;-89
2022/04/23 19:54:29;;;;;;;;;;;;;;;13.45;67.69;98830.09;4179526;34;33549;-87
2022/04/23 19:56:57;;;;;;;;;;;;;;;13.59;67.24;98825.22;4175856;34;34240;-90
2022/04/23 19:59:26;;;;;;;;;;;;;;;13.77;66.86;98820.16;4175314;34;34039;-88
2022/04/23 20:01:54;;;;;;;;;;;;;;;13.86;66.48;98820.66;4186520;34;34600;-87
2022/04/23 20:04:25;;;;;;;;;;;;;;;13.94;66.29;98825.56;4189277;34;33286;-90
2022/04/23 20:06:55;;;;;;;;;;;;;;;13.99;66.21;98825.34;4189975;34;33999;-87